Murphy, Oregon
Current Conditions -  °F | °C
As of 9:56 PM on Friday 24 Oct 2014 (Local Time) from KSXT Reporting Station
Few Clouds Few Clouds  
Wind Chill: 50°   Ceiling: Unl
Heat Index: 50°   Visibility: 10mi
Dew Point: 49°   Wind: 10mph
Humidity: 96%   Direction: 160°SSE
Pressure: 29.72"   Gusts: NA
Location:  42.35°N, 123.34°W
Report Text: KSXT 250456Z AUTO 16009KT 10SM FEW002 10/09 A2972 RMK AO2 SLP053 T01000094
Loading
Personal Weather Stations






























Interactive Weather Map
Tropical Storm Tracking
New forecast layout! Learn more

10-Day Weather Forecast

Advertisements
Track Severe Weather on mobile